Time,TemperatureF,DewpointF,PressureIn,WindDirection,WindDirectionDegrees,WindSpeedMPH,WindSpeedGustMPH,Humidity,HourlyPrecipIn,Conditions,Clouds,dailyrainin,SolarRadiationWatts/m^2,SoftwareType,DateUTC
2013-12-25 00:02:00,27.0,9.0,-100.00,NW,311,7.0,19.0,45,0.00,,,0.01,0.000000,,2013-12-25 05:02:00,
2013-12-25 00:12:00,27.0,9.0,-100.00,NW,311,7.0,19.0,45,0.00,,,0.01,0.000000,,2013-12-25 05:12:00,
2013-12-25 00:22:00,27.0,9.0,-100.00,NW,311,7.0,19.0,45,0.00,,,0.01,0.000000,,2013-12-25 05:22:00,
2013-12-25 00:53:00,26.0,9.0,-100.00,NW,305,7.0,22.0,49,0.00,,,0.00,0.000000,,2013-12-25 05:53:00,
2013-12-25 01:03:00,26.0,9.0,-100.00,NW,305,7.0,22.0,49,0.00,,,0.00,0.000000,,2013-12-25 06:03:00,
2013-12-25 01:12:00,26.0,9.0,-100.00,NW,305,7.0,22.0,49,0.00,,,0.00,0.000000,,2013-12-25 06:12:00,
2013-12-25 01:22:00,26.0,9.0,-100.00,NW,305,7.0,22.0,49,0.00,,,0.00,0.000000,,2013-12-25 06:22:00,
2013-12-25 01:52:00,26.0,10.0,-100.00,NW,304,7.0,15.0,51,0.00,,,0.00,0.000000,,2013-12-25 06:52:00,
2013-12-25 02:02:00,26.0,10.0,-100.00,NW,304,7.0,15.0,51,0.00,,,0.00,0.000000,,2013-12-25 07:02:00,
2013-12-25 02:12:00,26.0,10.0,-100.00,NW,304,7.0,15.0,51,0.00,,,0.00,0.000000,,2013-12-25 07:12:00,
2013-12-25 02:22:00,26.0,10.0,-100.00,NW,304,7.0,15.0,51,0.00,,,0.00,0.000000,,2013-12-25 07:22:00,
2013-12-25 02:52:00,25.0,10.0,-100.00,NW,310,6.0,14.0,52,0.00,,,0.00,0.000000,,2013-12-25 07:52:00,
2013-12-25 03:01:00,25.0,10.0,-100.00,NW,310,6.0,14.0,52,0.00,,,0.00,0.000000,,2013-12-25 08:01:00,
2013-12-25 03:11:00,25.0,10.0,-100.00,NW,310,6.0,14.0,52,0.00,,,0.00,0.000000,,2013-12-25 08:11:00,
2013-12-25 03:22:00,25.0,10.0,-100.00,NW,310,6.0,14.0,52,0.00,,,0.00,0.000000,,2013-12-25 08:22:00,
2013-12-25 03:53:00,25.0,11.0,-100.00,NW,304,6.0,13.0,54,0.00,,,0.00,0.000000,,2013-12-25 08:53:00,
2013-12-25 04:02:00,25.0,11.0,-100.00,NW,304,6.0,13.0,54,0.00,,,0.00,0.000000,,2013-12-25 09:02:00,
2013-12-25 04:11:00,25.0,11.0,-100.00,NW,304,6.0,13.0,54,0.00,,,0.00,0.000000,,2013-12-25 09:11:00,
2013-12-25 04:22:00,25.0,11.0,-100.00,NW,304,6.0,13.0,54,0.00,,,0.00,0.000000,,2013-12-25 09:22:00,
2013-12-25 04:52:00,24.0,10.0,-100.00,WNW,300,5.0,13.0,54,0.00,,,0.00,0.000000,,2013-12-25 09:52:00,
2013-12-25 05:02:00,24.0,10.0,-100.00,WNW,300,5.0,13.0,54,0.00,,,0.00,0.000000,,2013-12-25 10:02:00,
2013-12-25 05:11:00,24.0,10.0,-100.00,WNW,300,5.0,13.0,54,0.00,,,0.00,0.000000,,2013-12-25 10:11:00,
2013-12-25 05:22:00,24.0,10.0,-100.00,WNW,300,5.0,13.0,54,0.00,,,0.00,0.000000,,2013-12-25 10:22:00,
2013-12-25 05:53:00,23.0,11.0,-100.00,NW,306,5.0,12.0,59,0.00,,,0.00,0.000000,,2013-12-25 10:53:00,
2013-12-25 06:02:00,23.0,11.0,-100.00,NW,306,5.0,12.0,59,0.00,,,0.00,0.000000,,2013-12-25 11:02:00,
2013-12-25 06:12:00,23.0,11.0,-100.00,NW,306,5.0,12.0,59,0.00,,,0.00,0.000000,,2013-12-25 11:12:00,
2013-12-25 06:22:00,23.0,11.0,-100.00,NW,306,5.0,12.0,59,0.00,,,0.00,0.000000,,2013-12-25 11:22:00,
2013-12-25 06:52:00,23.0,10.0,-100.00,WNW,296,8.0,16.0,56,0.00,,,0.00,0.000000,,2013-12-25 11:52:00,
2013-12-25 07:02:00,23.0,10.0,-100.00,WNW,296,8.0,16.0,56,0.00,,,0.00,0.000000,,2013-12-25 12:02:00,
2013-12-25 07:11:00,23.0,10.0,-100.00,WNW,296,8.0,16.0,56,0.00,,,0.00,0.000000,,2013-12-25 12:11:00,
2013-12-25 07:22:00,23.0,10.0,-100.00,WNW,296,8.0,16.0,56,0.00,,,0.00,0.000000,,2013-12-25 12:22:00,
2013-12-25 07:52:00,23.0,11.0,-100.00,WNW,294,6.0,13.0,59,0.00,,,0.00,1.000000,,2013-12-25 12:52:00,
2013-12-25 08:02:00,23.0,11.0,-100.00,WNW,294,6.0,13.0,59,0.00,,,0.00,1.000000,,2013-12-25 13:02:00,
2013-12-25 08:12:00,23.0,11.0,-100.00,WNW,294,6.0,13.0,59,0.00,,,0.00,1.000000,,2013-12-25 13:12:00,
2013-12-25 08:22:00,23.0,11.0,-100.00,WNW,294,6.0,13.0,59,0.00,,,0.00,1.000000,,2013-12-25 13:22:00,
2013-12-25 08:52:00,25.0,11.0,-100.00,WNW,299,6.0,10.0,55,0.00,,,0.00,49.000000,,2013-12-25 13:52:00,
2013-12-25 09:02:00,25.0,11.0,-100.00,WNW,299,6.0,10.0,55,0.00,,,0.00,49.000000,,2013-12-25 14:02:00,
2013-12-25 09:12:00,25.0,11.0,-100.00,WNW,299,6.0,10.0,55,0.00,,,0.00,49.000000,,2013-12-25 14:12:00,
2013-12-25 09:22:00,25.0,11.0,-100.00,WNW,299,6.0,10.0,55,0.00,,,0.00,49.000000,,2013-12-25 14:22:00,
2013-12-25 09:52:00,29.0,14.0,-100.00,NW,323,5.0,11.0,52,0.00,,,0.00,216.000000,,2013-12-25 14:52:00,
2013-12-25 10:02:00,29.0,14.0,-100.00,NW,323,5.0,11.0,52,0.00,,,0.00,216.000000,,2013-12-25 15:02:00,
2013-12-25 10:11:00,29.0,14.0,-100.00,NW,323,5.0,11.0,52,0.00,,,0.00,216.000000,,2013-12-25 15:11:00,
2013-12-25 10:22:00,29.0,14.0,-100.00,NW,323,5.0,11.0,52,0.00,,,0.00,216.000000,,2013-12-25 15:22:00,
2013-12-25 10:54:00,29.0,12.0,-100.00,North,355,5.0,12.0,48,0.00,,,0.00,352.000000,,2013-12-25 15:54:00,
2013-12-25 11:03:00,29.0,12.0,-100.00,North,355,5.0,12.0,48,0.00,,,0.00,352.000000,,2013-12-25 16:03:00,
2013-12-25 11:13:00,29.0,12.0,-100.00,North,355,5.0,12.0,48,0.00,,,0.00,352.000000,,2013-12-25 16:13:00,
2013-12-25 11:23:00,29.0,12.0,-100.00,North,355,5.0,12.0,48,0.00,,,0.00,352.000000,,2013-12-25 16:23:00,
2013-12-25 11:53:00,30.0,11.0,-100.00,North,352,6.0,12.0,45,0.00,,,0.00,448.000000,,2013-12-25 16:53:00,
2013-12-25 12:02:00,30.0,11.0,-100.00,North,352,6.0,12.0,45,0.00,,,0.00,448.000000,,2013-12-25 17:02:00,
2013-12-25 12:12:00,30.0,11.0,-100.00,North,352,6.0,12.0,45,0.00,,,0.00,448.000000,,2013-12-25 17:12:00,
2013-12-25 12:22:00,30.0,11.0,-100.00,North,352,6.0,12.0,45,0.00,,,0.00,448.000000,,2013-12-25 17:22:00,
2013-12-25 12:53:00,31.0,14.0,-100.00,North,1,5.0,11.0,48,0.00,,,0.00,488.000000,,2013-12-25 17:53:00,
2013-12-25 13:02:00,31.0,14.0,-100.00,North,1,5.0,11.0,48,0.00,,,0.00,488.000000,,2013-12-25 18:02:00,
2013-12-25 13:12:00,31.0,14.0,-100.00,North,1,5.0,11.0,48,0.00,,,0.00,488.000000,,2013-12-25 18:12:00,
2013-12-25 13:22:00,31.0,14.0,-100.00,North,1,5.0,11.0,48,0.00,,,0.00,488.000000,,2013-12-25 18:22:00,
2013-12-25 13:53:00,32.0,14.0,-100.00,NNE,13,4.0,8.0,46,0.00,,,0.00,470.000000,,2013-12-25 18:53:00,
2013-12-25 14:02:00,32.0,14.0,-100.00,NNE,13,4.0,8.0,46,0.00,,,0.00,470.000000,,2013-12-25 19:02:00,
2013-12-25 14:12:00,32.0,14.0,-100.00,NNE,13,4.0,8.0,46,0.00,,,0.00,470.000000,,2013-12-25 19:12:00,
2013-12-25 14:22:00,32.0,14.0,-100.00,NNE,13,4.0,8.0,46,0.00,,,0.00,470.000000,,2013-12-25 19:22:00,
2013-12-25 14:52:00,32.0,14.0,-100.00,NNE,33,4.0,8.0,47,0.00,,,0.00,397.000000,,2013-12-25 19:52:00,
2013-12-25 15:01:00,32.0,14.0,-100.00,NNE,33,4.0,8.0,47,0.00,,,0.00,397.000000,,2013-12-25 20:01:00,
2013-12-25 15:11:00,32.0,14.0,-100.00,NNE,33,4.0,8.0,47,0.00,,,0.00,397.000000,,2013-12-25 20:11:00,
2013-12-25 15:22:00,32.0,14.0,-100.00,NNE,33,4.0,8.0,47,0.00,,,0.00,397.000000,,2013-12-25 20:22:00,
2013-12-25 15:53:00,31.0,15.0,-100.00,East,86,4.0,7.0,50,0.00,,,0.00,275.000000,,2013-12-25 20:53:00,
2013-12-25 16:02:00,31.0,15.0,-100.00,East,86,4.0,7.0,50,0.00,,,0.00,275.000000,,2013-12-25 21:02:00,
2013-12-25 16:12:00,31.0,15.0,-100.00,East,86,4.0,7.0,50,0.00,,,0.00,275.000000,,2013-12-25 21:12:00,
2013-12-25 16:22:00,31.0,15.0,-100.00,East,86,4.0,7.0,50,0.00,,,0.00,275.000000,,2013-12-25 21:22:00,
2013-12-25 16:53:00,29.0,15.0,-100.00,ENE,72,3.0,6.0,55,0.00,,,0.00,79.000000,,2013-12-25 21:53:00,
2013-12-25 17:03:00,29.0,15.0,-100.00,ENE,72,3.0,6.0,55,0.00,,,0.00,79.000000,,2013-12-25 22:03:00,
2013-12-25 17:13:00,29.0,15.0,-100.00,ENE,72,3.0,6.0,55,0.00,,,0.00,79.000000,,2013-12-25 22:13:00,
2013-12-25 17:24:00,29.0,15.0,-100.00,ENE,72,3.0,6.0,55,0.00,,,0.00,79.000000,,2013-12-25 22:24:00,
2013-12-25 17:53:00,27.0,16.0,-100.00,SSE,151,2.0,5.0,64,0.00,,,0.00,4.000000,,2013-12-25 22:53:00,
2013-12-25 18:03:00,27.0,16.0,-100.00,SSE,151,2.0,5.0,64,0.00,,,0.00,4.000000,,2013-12-25 23:03:00,
2013-12-25 18:12:00,27.0,16.0,-100.00,SSE,151,2.0,5.0,64,0.00,,,0.00,4.000000,,2013-12-25 23:12:00,
2013-12-25 18:22:00,27.0,16.0,-100.00,SSE,151,2.0,5.0,64,0.00,,,0.00,4.000000,,2013-12-25 23:22:00,
2013-12-25 18:53:00,26.0,16.0,-100.00,SSE,155,2.0,5.0,65,0.00,,,0.00,0.000000,,2013-12-25 23:53:00,
2013-12-25 19:02:00,26.0,16.0,-100.00,SSE,155,2.0,5.0,65,0.00,,,0.00,0.000000,,2013-12-26 00:02:00,
2013-12-25 19:11:00,26.0,16.0,-100.00,SSE,155,2.0,5.0,65,0.00,,,0.00,0.000000,,2013-12-26 00:11:00,
2013-12-25 19:22:00,26.0,16.0,-100.00,SSE,155,2.0,5.0,65,0.00,,,0.00,0.000000,,2013-12-26 00:22:00,
2013-12-25 19:52:00,25.0,16.0,-100.00,SSW,201,1.0,4.0,68,0.00,,,0.00,0.000000,,2013-12-26 00:52:00,
2013-12-25 20:02:00,25.0,16.0,-100.00,SSW,201,1.0,4.0,68,0.00,,,0.00,0.000000,,2013-12-26 01:02:00,
2013-12-25 20:12:00,25.0,16.0,-100.00,SSW,201,1.0,4.0,68,0.00,,,0.00,0.000000,,2013-12-26 01:12:00,
2013-12-25 20:21:00,25.0,16.0,-100.00,SSW,201,1.0,4.0,68,0.00,,,0.00,0.000000,,2013-12-26 01:21:00,
2013-12-25 20:52:00,24.0,17.0,-100.00,North,-999,0.0,4.0,73,0.00,,,0.00,0.000000,,2013-12-26 01:52:00,
2013-12-25 21:02:00,24.0,17.0,-100.00,North,-999,0.0,4.0,73,0.00,,,0.00,0.000000,,2013-12-26 02:02:00,
2013-12-25 21:12:00,24.0,17.0,-100.00,North,-999,0.0,4.0,73,0.00,,,0.00,0.000000,,2013-12-26 02:12:00,
2013-12-25 21:22:00,24.0,17.0,-100.00,North,-999,0.0,4.0,73,0.00,,,0.00,0.000000,,2013-12-26 02:22:00,
2013-12-25 22:11:00,24.0,18.0,-100.00,North,-999,0.0,2.0,76,0.00,,,0.00,0.000000,,2013-12-26 03:11:00,
2013-12-25 22:22:00,24.0,18.0,-100.00,North,-999,0.0,2.0,76,0.00,,,0.00,0.000000,,2013-12-26 03:22:00,
2013-12-25 22:53:00,23.0,19.0,-100.00,North,-999,0.0,0.0,84,0.00,,,0.00,0.000000,,2013-12-26 03:53:00,
2013-12-25 23:03:00,23.0,19.0,-100.00,North,-999,0.0,0.0,84,0.00,,,0.00,0.000000,,2013-12-26 04:03:00,
2013-12-25 23:13:00,23.0,19.0,-100.00,North,-999,0.0,0.0,84,0.00,,,0.00,0.000000,,2013-12-26 04:13:00,
2013-12-25 23:23:00,23.0,19.0,-100.00,North,-999,0.0,0.0,84,0.00,,,0.00,0.000000,,2013-12-26 04:23:00,
2013-12-25 23:53:00,22.0,19.0,-100.00,North,-999,0.0,0.0,89,0.00,,,0.00,0.000000,,2013-12-26 04:53:00,